createdAt,value
2018-12-24T00:02:03.386Z,96.10
2018-12-24T00:04:31.961Z,95.80
2018-12-24T00:07:00.531Z,95.80
2018-12-24T00:09:29.195Z,95.80
2018-12-24T00:11:57.737Z,95.80
2018-12-24T00:14:26.293Z,95.80
2018-12-24T00:16:54.870Z,95.80
2018-12-24T00:19:23.389Z,95.70
2018-12-24T00:21:52.008Z,95.70
2018-12-24T00:24:20.608Z,95.70
2018-12-24T00:26:49.212Z,95.60
2018-12-24T00:29:17.738Z,95.60
2018-12-24T00:31:46.369Z,95.60
2018-12-24T00:34:14.908Z,95.60
2018-12-24T00:36:43.460Z,95.60
2018-12-24T00:39:12.074Z,95.60
2018-12-24T00:41:40.689Z,96.00
2018-12-24T00:44:09.205Z,95.80
2018-12-24T00:46:37.847Z,95.90
2018-12-24T00:49:06.369Z,96.40
2018-12-24T00:51:34.920Z,96.20
2018-12-24T00:54:03.460Z,96.80
2018-12-24T00:56:32.020Z,96.90
2018-12-24T00:59:00.554Z,96.80
2018-12-24T01:01:29.101Z,96.80
2018-12-24T01:03:57.658Z,97.10
2018-12-24T01:06:26.246Z,97.20
2018-12-24T01:08:54.794Z,97.20
2018-12-24T01:11:23.340Z,97.20
2018-12-24T01:13:51.883Z,97.10
2018-12-24T01:16:20.411Z,97.00
2018-12-24T01:18:49.022Z,97.00
2018-12-24T01:21:17.621Z,97.00
2018-12-24T01:23:46.156Z,96.90
2018-12-24T01:26:14.722Z,96.80
2018-12-24T01:28:43.303Z,96.70
2018-12-24T01:31:12.045Z,96.70
2018-12-24T01:33:40.600Z,96.70
2018-12-24T01:36:09.141Z,96.60
2018-12-24T01:38:37.683Z,96.60
2018-12-24T01:41:06.236Z,96.60
2018-12-24T01:43:34.801Z,96.60
2018-12-24T01:46:03.330Z,96.60
2018-12-24T01:48:31.858Z,96.60
2018-12-24T01:51:00.409Z,96.60
2018-12-24T01:53:28.945Z,96.60
2018-12-24T01:55:57.673Z,96.60
2018-12-24T01:58:26.181Z,96.70
2018-12-24T02:00:54.710Z,96.80
2018-12-24T02:03:23.221Z,97.10
2018-12-24T02:05:51.792Z,97.40
2018-12-24T02:08:20.395Z,97.80
2018-12-24T02:10:48.932Z,98.20
2018-12-24T02:13:17.461Z,98.40
2018-12-24T02:15:46.004Z,94.90
2018-12-24T02:18:14.546Z,91.30
2018-12-24T02:20:43.213Z,90.10
2018-12-24T02:23:11.730Z,90.40
2018-12-24T02:25:40.268Z,90.50
2018-12-24T02:28:08.804Z,90.90
2018-12-24T02:30:37.321Z,91.20
2018-12-24T02:33:05.860Z,91.20
2018-12-24T02:35:34.374Z,91.00
2018-12-24T02:38:02.926Z,91.70
2018-12-24T02:40:31.451Z,91.60
2018-12-24T02:42:59.982Z,91.80
2018-12-24T02:45:28.503Z,92.00
2018-12-24T02:47:57.070Z,92.30
2018-12-24T02:50:25.586Z,92.50
2018-12-24T02:52:54.114Z,92.50
2018-12-24T02:55:22.754Z,92.40
2018-12-24T02:57:51.296Z,92.30
2018-12-24T03:00:19.824Z,92.40
2018-12-24T03:02:48.369Z,92.60
2018-12-24T03:05:16.889Z,92.30
2018-12-24T03:07:45.430Z,92.40
2018-12-24T03:10:13.961Z,92.60
2018-12-24T03:12:42.509Z,92.50
2018-12-24T03:15:11.049Z,92.50
2018-12-24T03:17:39.605Z,92.70
2018-12-24T03:20:08.238Z,92.70
2018-12-24T03:22:36.800Z,92.70
2018-12-24T03:25:05.794Z,92.70
2018-12-24T03:27:34.320Z,92.60
2018-12-24T03:30:02.904Z,92.40
2018-12-24T03:32:31.464Z,92.40
2018-12-24T03:35:00.027Z,92.30
2018-12-24T03:37:28.612Z,92.40
2018-12-24T03:39:57.176Z,92.60
2018-12-24T03:42:25.710Z,92.70
2018-12-24T03:44:54.258Z,92.70
2018-12-24T03:47:22.793Z,92.80
2018-12-24T03:49:51.330Z,92.60
2018-12-24T03:52:19.842Z,92.70
2018-12-24T03:54:48.387Z,92.20
2018-12-24T03:57:16.901Z,92.70
2018-12-24T03:59:45.464Z,92.20
2018-12-24T04:02:13.990Z,91.80
2018-12-24T04:04:42.504Z,91.60
2018-12-24T04:07:11.044Z,91.40
2018-12-24T04:09:39.567Z,90.80
2018-12-24T04:12:08.277Z,90.80
2018-12-24T04:14:36.794Z,90.80
2018-12-24T04:17:06.346Z,90.60
2018-12-24T04:19:34.855Z,90.60
2018-12-24T04:22:03.413Z,90.50
2018-12-24T04:24:32.092Z,90.40
2018-12-24T04:27:00.624Z,90.30
2018-12-24T04:29:29.225Z,90.00
2018-12-24T04:31:57.758Z,90.20
2018-12-24T04:34:26.272Z,90.20
2018-12-24T04:36:54.832Z,90.40
2018-12-24T04:39:23.556Z,90.50
2018-12-24T04:41:52.102Z,90.40
2018-12-24T04:44:20.634Z,90.50
2018-12-24T04:46:49.197Z,90.70
2018-12-24T04:49:17.736Z,90.50
2018-12-24T04:51:46.288Z,90.50
2018-12-24T04:54:15.372Z,90.20
2018-12-24T04:56:43.893Z,90.40
2018-12-24T04:59:12.457Z,90.50
2018-12-24T05:01:40.980Z,90.30
2018-12-24T05:04:09.508Z,89.80
2018-12-24T05:06:38.123Z,88.90
2018-12-24T05:09:07.202Z,88.20
2018-12-24T05:11:35.779Z,88.70
2018-12-24T05:14:04.316Z,88.50
2018-12-24T05:16:32.824Z,87.60
2018-12-24T05:19:01.365Z,87.10
2018-12-24T05:21:29.887Z,86.80
2018-12-24T05:23:58.437Z,86.20
2018-12-24T05:26:26.967Z,85.80
2018-12-24T05:28:55.496Z,85.70
2018-12-24T05:31:24.042Z,85.40
2018-12-24T05:33:52.565Z,84.60
2018-12-24T05:36:21.102Z,84.90
2018-12-24T05:38:49.606Z,84.80
2018-12-24T05:41:18.178Z,84.40
2018-12-24T05:43:49.523Z,83.60
2018-12-24T05:46:16.977Z,83.50
2018-12-24T05:48:45.493Z,83.50
2018-12-24T05:51:14.038Z,83.40
2018-12-24T05:53:42.565Z,83.10
2018-12-24T05:56:11.120Z,83.20
2018-12-24T05:58:39.632Z,83.00
2018-12-24T06:01:08.340Z,82.90
2018-12-24T06:03:36.867Z,82.90
2018-12-24T06:06:05.409Z,82.50
2018-12-24T06:08:33.933Z,82.10
2018-12-24T06:11:02.479Z,82.10
2018-12-24T06:13:31.021Z,82.30
2018-12-24T06:15:59.535Z,81.40
2018-12-24T06:18:28.086Z,81.30
2018-12-24T06:20:56.620Z,81.20
2018-12-24T06:23:25.226Z,81.70
2018-12-24T06:25:55.671Z,81.10
2018-12-24T06:28:24.032Z,81.00
2018-12-24T06:30:52.684Z,80.90
2018-12-24T06:33:21.271Z,80.90
2018-12-24T06:35:49.853Z,80.30
2018-12-24T06:38:18.385Z,80.40
2018-12-24T06:40:46.902Z,80.50
2018-12-24T06:43:15.449Z,80.60
2018-12-24T06:45:44.590Z,80.20
2018-12-24T06:48:13.126Z,80.40
2018-12-24T06:50:41.686Z,80.10
2018-12-24T06:53:10.251Z,80.10
2018-12-24T06:55:38.937Z,80.30
2018-12-24T06:58:07.558Z,80.00
2018-12-24T07:00:36.085Z,79.40
2018-12-24T07:03:04.623Z,79.70
2018-12-24T07:05:33.160Z,80.30
2018-12-24T07:08:01.689Z,80.20
2018-12-24T07:10:30.210Z,80.10
2018-12-24T07:12:58.765Z,80.20
2018-12-24T07:15:27.278Z,80.00
2018-12-24T07:17:55.826Z,80.00
2018-12-24T07:20:24.477Z,79.90
2018-12-24T07:22:53.073Z,79.40
2018-12-24T07:25:21.621Z,79.50
2018-12-24T07:27:50.138Z,79.40
2018-12-24T07:30:18.701Z,79.10
2018-12-24T07:32:47.216Z,79.00
2018-12-24T07:35:15.765Z,79.20
2018-12-24T07:37:44.278Z,78.80
2018-12-24T07:40:12.858Z,78.70
2018-12-24T07:42:41.470Z,78.50
2018-12-24T07:45:10.019Z,78.10
2018-12-24T07:47:38.544Z,78.10
2018-12-24T07:50:07.064Z,77.70
2018-12-24T07:52:35.602Z,77.70
2018-12-24T07:55:04.128Z,76.70
2018-12-24T07:57:32.676Z,77.20
2018-12-24T08:00:01.184Z,76.70
2018-12-24T08:02:29.777Z,76.60
2018-12-24T08:04:58.368Z,76.60
2018-12-24T08:07:26.912Z,76.20
2018-12-24T08:09:55.503Z,76.10
2018-12-24T08:12:24.029Z,76.40
2018-12-24T08:14:52.549Z,76.20
2018-12-24T08:17:21.069Z,76.00
2018-12-24T08:19:49.659Z,76.30
2018-12-24T08:22:18.258Z,75.70
2018-12-24T08:24:46.778Z,75.60
2018-12-24T08:27:15.345Z,75.40
2018-12-24T08:29:43.876Z,75.00
2018-12-24T08:32:12.437Z,75.30
2018-12-24T08:34:40.977Z,75.80
2018-12-24T08:37:09.574Z,76.40
2018-12-24T08:39:38.123Z,76.00
2018-12-24T08:42:06.647Z,75.20
2018-12-24T08:44:41.784Z,75.20
2018-12-24T08:47:05.837Z,75.20
2018-12-24T08:49:34.623Z,75.10
2018-12-24T08:52:03.225Z,74.90
2018-12-24T08:54:31.768Z,74.20
2018-12-24T08:57:00.302Z,74.40
2018-12-24T08:59:28.845Z,75.10
2018-12-24T09:01:58.120Z,74.80
2018-12-24T09:04:26.816Z,74.90
2018-12-24T09:06:55.414Z,74.60
2018-12-24T09:09:23.952Z,74.50
2018-12-24T09:11:52.487Z,75.00
2018-12-24T09:14:21.099Z,74.90
2018-12-24T09:16:49.637Z,75.50
2018-12-24T09:19:18.181Z,75.70
2018-12-24T09:21:46.715Z,76.10
2018-12-24T09:24:15.338Z,76.10
2018-12-24T09:26:43.946Z,76.80
2018-12-24T09:29:12.473Z,75.90
2018-12-24T09:31:41.056Z,76.00
2018-12-24T09:34:09.556Z,76.30
2018-12-24T09:36:38.132Z,76.30
2018-12-24T09:39:07.018Z,76.20
2018-12-24T09:41:35.722Z,76.30
2018-12-24T09:44:04.263Z,76.40
2018-12-24T09:46:32.820Z,76.40
2018-12-24T09:49:01.365Z,76.20
2018-12-24T09:51:29.977Z,76.60
2018-12-24T09:54:00.059Z,77.50
2018-12-24T09:56:28.621Z,76.90
2018-12-24T09:58:57.236Z,76.60
2018-12-24T10:01:25.763Z,77.10
2018-12-24T10:04:02.709Z,76.50
2018-12-24T10:06:24.602Z,76.40
2018-12-24T10:08:53.146Z,76.10
2018-12-24T10:11:21.676Z,76.00
2018-12-24T10:13:50.217Z,76.10
2018-12-24T10:16:18.738Z,75.90
2018-12-24T10:18:47.296Z,76.10
2018-12-24T10:21:15.824Z,75.80
2018-12-24T10:23:44.357Z,75.30
2018-12-24T10:26:12.904Z,74.30
2018-12-24T10:28:41.456Z,73.90
2018-12-24T10:31:10.038Z,73.50
2018-12-24T10:33:38.605Z,73.70
2018-12-24T10:36:07.190Z,74.60
2018-12-24T10:38:35.788Z,73.90
2018-12-24T10:41:04.314Z,73.50
2018-12-24T10:43:32.837Z,71.80
2018-12-24T10:46:01.432Z,70.30
2018-12-24T10:48:30.010Z,70.10
2018-12-24T10:50:58.559Z,69.20
2018-12-24T10:53:27.104Z,68.90
2018-12-24T10:55:55.671Z,69.30
2018-12-24T10:58:24.188Z,69.90
2018-12-24T11:00:52.826Z,70.90
2018-12-24T11:03:21.349Z,71.50
2018-12-24T11:05:49.922Z,72.00
2018-12-24T11:08:18.430Z,72.10
2018-12-24T11:10:46.954Z,72.70
2018-12-24T11:13:15.496Z,73.00
2018-12-24T11:15:47.160Z,72.60
2018-12-24T11:18:15.696Z,72.20
2018-12-24T11:20:44.211Z,72.50
2018-12-24T11:23:12.774Z,72.70
2018-12-24T11:25:41.333Z,72.80
2018-12-24T11:28:09.856Z,72.60
2018-12-24T11:30:38.367Z,73.10
2018-12-24T11:33:06.910Z,73.10
2018-12-24T11:35:35.444Z,72.50
2018-12-24T11:38:03.981Z,72.60
2018-12-24T11:40:32.493Z,73.60
2018-12-24T11:43:01.066Z,73.90
2018-12-24T11:45:33.794Z,73.80
2018-12-24T11:48:01.241Z,74.30
2018-12-24T11:50:29.797Z,74.50
2018-12-24T11:52:58.375Z,74.40
2018-12-24T11:55:26.920Z,74.90
2018-12-24T11:57:55.489Z,74.80
2018-12-24T12:00:24.005Z,74.80
2018-12-24T12:02:52.591Z,74.80
2018-12-24T12:05:21.130Z,74.70
2018-12-24T12:07:49.690Z,74.50
2018-12-24T12:10:18.214Z,74.10
2018-12-24T12:12:46.810Z,74.70
2018-12-24T12:15:15.395Z,76.00
2018-12-24T12:17:43.909Z,76.80
2018-12-24T12:20:12.510Z,77.00
2018-12-24T12:22:41.043Z,77.40
2018-12-24T12:25:09.750Z,78.00
2018-12-24T12:27:38.294Z,77.80
2018-12-24T12:30:08.881Z,78.30
2018-12-24T12:32:37.400Z,75.10
2018-12-24T12:35:06.047Z,73.50
2018-12-24T12:37:34.566Z,73.50
2018-12-24T12:40:03.111Z,73.60
2018-12-24T12:42:31.637Z,73.20
2018-12-24T12:45:00.229Z,73.70
2018-12-24T12:47:28.777Z,74.00
2018-12-24T12:49:57.353Z,75.30
2018-12-24T12:52:25.901Z,73.50
2018-12-24T12:54:54.447Z,73.20
2018-12-24T12:57:23.005Z,74.00
2018-12-24T12:59:51.510Z,73.00
2018-12-24T13:02:20.082Z,72.90
2018-12-24T13:04:48.596Z,73.60
2018-12-24T13:07:17.132Z,73.80
2018-12-24T13:09:45.686Z,74.10
2018-12-24T13:12:14.229Z,74.40
2018-12-24T13:14:42.769Z,73.30
2018-12-24T13:17:11.343Z,73.40
2018-12-24T13:19:39.857Z,73.80
2018-12-24T13:22:08.400Z,73.30
2018-12-24T13:24:36.929Z,71.60
2018-12-24T13:27:06.926Z,71.00
2018-12-24T13:29:35.680Z,70.70
2018-12-24T13:32:04.237Z,69.50
2018-12-24T13:34:32.848Z,69.10
2018-12-24T13:37:01.456Z,68.10
2018-12-24T13:39:29.997Z,67.50
2018-12-24T13:41:58.548Z,67.60
2018-12-24T13:44:27.090Z,66.30
2018-12-24T13:46:55.629Z,65.70
2018-12-24T13:49:24.183Z,65.40
2018-12-24T13:51:52.701Z,64.80
2018-12-24T13:54:21.271Z,64.10
2018-12-24T13:56:49.780Z,63.40
2018-12-24T13:59:57.256Z,64.00
2018-12-24T14:02:25.734Z,65.10
2018-12-24T14:04:54.222Z,65.10
2018-12-24T14:07:22.640Z,65.60
2018-12-24T14:09:51.097Z,67.10
2018-12-24T14:12:19.581Z,67.70
2018-12-24T14:14:48.051Z,68.80
2018-12-24T14:17:16.573Z,69.10
2018-12-24T14:19:45.019Z,68.90
2018-12-24T14:22:13.464Z,69.30
2018-12-24T14:24:41.889Z,69.20
2018-12-24T14:27:10.362Z,68.70
2018-12-24T14:29:38.818Z,69.20
2018-12-24T14:32:07.248Z,70.10
2018-12-24T14:34:35.693Z,70.90
2018-12-24T14:37:04.166Z,70.70
2018-12-24T14:39:32.609Z,71.70
2018-12-24T14:42:01.094Z,71.10
2018-12-24T14:44:29.528Z,69.20
2018-12-24T14:46:57.969Z,68.10
2018-12-24T14:49:26.384Z,67.80
2018-12-24T14:51:54.828Z,69.70
2018-12-24T14:54:23.309Z,70.30
2018-12-24T14:56:51.786Z,70.60
2018-12-24T14:59:20.217Z,71.60
2018-12-24T15:01:48.717Z,69.90
2018-12-24T15:04:17.145Z,70.00
2018-12-24T15:06:45.600Z,69.80
2018-12-24T15:09:14.054Z,70.50
2018-12-24T15:11:42.574Z,71.00
2018-12-24T15:14:10.981Z,71.10
2018-12-24T15:16:39.500Z,71.30
2018-12-24T15:19:07.937Z,70.60
2018-12-24T15:21:36.395Z,70.30
2018-12-24T15:24:04.862Z,70.20
2018-12-24T15:26:33.291Z,70.30
2018-12-24T15:29:01.713Z,70.40
2018-12-24T15:31:30.213Z,70.60
2018-12-24T15:33:58.712Z,71.00
2018-12-24T15:36:27.221Z,70.90
2018-12-24T15:38:55.677Z,72.10
2018-12-24T15:41:26.069Z,73.10
2018-12-24T15:43:54.277Z,73.30
2018-12-24T15:46:22.762Z,73.80
2018-12-24T15:48:51.204Z,73.90
2018-12-24T15:51:19.623Z,74.40
2018-12-24T15:53:48.121Z,74.30
2018-12-24T15:56:16.738Z,74.20
2018-12-24T15:58:45.177Z,74.20
2018-12-24T16:01:13.591Z,74.30
2018-12-24T16:03:42.024Z,74.70
2018-12-24T16:06:10.459Z,75.00
2018-12-24T16:08:38.909Z,75.40
2018-12-24T16:11:07.351Z,74.40
2018-12-24T16:13:35.829Z,74.50
2018-12-24T16:16:04.317Z,73.80
2018-12-24T16:18:32.744Z,74.10
2018-12-24T16:21:01.172Z,73.90
2018-12-24T16:23:29.672Z,74.30
2018-12-24T16:25:58.115Z,75.00
2018-12-24T16:28:26.523Z,75.30
2018-12-24T16:30:54.958Z,76.30
2018-12-24T16:33:23.414Z,76.30
2018-12-24T16:35:51.864Z,75.80
2018-12-24T16:38:20.346Z,75.70
2018-12-24T16:40:48.805Z,75.40
2018-12-24T16:43:17.278Z,75.30
2018-12-24T16:45:45.797Z,76.00
2018-12-24T16:48:14.225Z,75.20
2018-12-24T16:50:42.690Z,75.30
2018-12-24T16:53:10.313Z,75.90
2018-12-24T16:55:38.006Z,76.60
2018-12-24T16:58:05.669Z,76.20
2018-12-24T17:00:33.313Z,76.10
2018-12-24T17:03:01.017Z,77.10
2018-12-24T17:05:28.732Z,77.70
2018-12-24T17:07:56.409Z,78.20
2018-12-24T17:10:24.044Z,77.80
2018-12-24T17:12:51.720Z,78.50
2018-12-24T17:15:19.387Z,78.20
2018-12-24T17:17:47.087Z,78.90
2018-12-24T17:20:14.761Z,78.70
2018-12-24T17:22:42.415Z,78.60
2018-12-24T17:25:10.089Z,79.30
2018-12-24T17:27:37.752Z,79.70
2018-12-24T17:30:06.272Z,79.90
2018-12-24T17:32:34.003Z,80.30
2018-12-24T17:35:01.735Z,80.50
2018-12-24T17:37:29.420Z,80.10
2018-12-24T17:39:57.075Z,80.70
2018-12-24T17:42:24.745Z,80.90
2018-12-24T17:44:52.405Z,81.30
2018-12-24T17:47:20.075Z,81.10
2018-12-24T17:49:47.766Z,81.10
2018-12-24T17:52:15.423Z,80.50
2018-12-24T17:54:43.857Z,81.00
2018-12-24T17:57:12.384Z,81.00
2018-12-24T17:59:40.798Z,80.90
2018-12-24T18:02:09.227Z,81.00
2018-12-24T18:04:37.834Z,80.50
2018-12-24T18:07:06.254Z,80.60
2018-12-24T18:09:34.754Z,79.60
2018-12-24T18:12:03.159Z,79.00
2018-12-24T18:14:31.656Z,79.10
2018-12-24T18:17:00.066Z,78.70
2018-12-24T18:19:28.601Z,78.80
2018-12-24T18:21:57.034Z,78.60
2018-12-24T18:24:25.491Z,78.50
2018-12-24T18:26:53.897Z,79.00
2018-12-24T18:29:22.464Z,79.10
2018-12-24T18:31:50.913Z,78.70
2018-12-24T18:34:19.362Z,78.50
2018-12-24T18:36:47.811Z,77.90
2018-12-24T18:39:16.245Z,78.10
2018-12-24T18:41:44.694Z,78.30
2018-12-24T18:44:13.208Z,77.70
2018-12-24T18:46:41.645Z,77.20
2018-12-24T18:49:10.079Z,76.60
2018-12-24T18:51:38.526Z,76.80
2018-12-24T18:54:08.610Z,76.20
2018-12-24T18:56:37.044Z,75.70
2018-12-24T18:59:05.480Z,75.50
2018-12-24T19:01:33.944Z,75.70
2018-12-24T19:04:02.381Z,75.10
2018-12-24T19:06:30.897Z,75.30
2018-12-24T19:08:59.322Z,75.00
2018-12-24T19:11:27.782Z,74.90
2018-12-24T19:13:56.217Z,74.70
2018-12-24T19:16:24.668Z,74.70
2018-12-24T19:18:53.090Z,74.70
2018-12-24T19:21:21.592Z,74.90
2018-12-24T19:23:51.542Z,75.30
2018-12-24T19:26:20.111Z,75.00
2018-12-24T19:28:48.561Z,74.70
2018-12-24T19:31:17.038Z,74.40
2018-12-24T19:33:45.481Z,74.60
2018-12-24T19:36:13.937Z,74.50
2018-12-24T19:38:42.383Z,74.30
2018-12-24T19:41:10.795Z,74.00
2018-12-24T19:43:39.320Z,74.00
2018-12-24T19:46:07.743Z,74.30
2018-12-24T19:48:36.182Z,74.70
2018-12-24T19:51:04.675Z,74.40
2018-12-24T19:53:33.140Z,74.50
2018-12-24T19:56:01.567Z,74.00
2018-12-24T19:58:30.020Z,73.80
2018-12-24T20:00:58.466Z,73.70
2018-12-24T20:03:26.944Z,73.90
2018-12-24T20:05:55.352Z,73.70
2018-12-24T20:08:23.818Z,73.70
2018-12-24T20:10:52.248Z,73.70
2018-12-24T20:13:20.790Z,73.90
2018-12-24T20:15:49.274Z,73.60
2018-12-24T20:18:17.696Z,73.70
2018-12-24T20:20:46.161Z,73.40
2018-12-24T20:23:14.617Z,73.30
2018-12-24T20:25:43.145Z,73.40
2018-12-24T20:28:11.626Z,73.30
2018-12-24T20:30:40.072Z,72.80
2018-12-24T20:33:08.512Z,72.30
2018-12-24T20:35:36.997Z,71.90
2018-12-24T20:38:05.432Z,71.80
2018-12-24T20:40:33.901Z,72.20
2018-12-24T20:43:02.352Z,72.40
2018-12-24T20:45:30.805Z,72.70
2018-12-24T20:48:06.486Z,72.80
2018-12-24T20:50:29.451Z,72.60
2018-12-24T20:52:57.907Z,72.60
2018-12-24T20:55:26.461Z,71.80
2018-12-24T20:57:54.967Z,71.20
2018-12-24T21:00:23.421Z,70.70
2018-12-24T21:02:51.836Z,71.00
2018-12-24T21:05:20.288Z,71.30
2018-12-24T21:07:48.731Z,71.30
2018-12-24T21:10:17.158Z,72.00
2018-12-24T21:12:45.587Z,71.50
2018-12-24T21:15:14.026Z,71.40
2018-12-24T21:17:42.495Z,71.60
2018-12-24T21:20:10.926Z,71.20
2018-12-24T21:22:39.373Z,71.40
2018-12-24T21:25:07.788Z,70.10
2018-12-24T21:27:36.238Z,69.50
2018-12-24T21:30:05.297Z,69.20
2018-12-24T21:32:33.792Z,68.70
2018-12-24T21:35:02.207Z,69.50
2018-12-24T21:37:30.665Z,69.40
2018-12-24T21:39:59.105Z,68.90
2018-12-24T21:42:27.525Z,68.40
2018-12-24T21:44:56.167Z,68.40
2018-12-24T21:47:24.577Z,68.50
2018-12-24T21:49:53.014Z,68.50
2018-12-24T21:52:21.463Z,68.90
2018-12-24T21:54:49.897Z,68.90
2018-12-24T21:57:18.324Z,69.60
2018-12-24T21:59:46.771Z,69.40
2018-12-24T22:02:15.218Z,69.50
2018-12-24T22:04:43.658Z,69.60
2018-12-24T22:07:12.071Z,69.00
2018-12-24T22:09:40.521Z,68.90
2018-12-24T22:12:08.965Z,69.30
2018-12-24T22:14:37.392Z,68.40
2018-12-24T22:17:05.914Z,68.20
2018-12-24T22:19:34.635Z,68.60
2018-12-24T22:22:03.059Z,68.80
2018-12-24T22:24:31.480Z,68.70
2018-12-24T22:26:59.992Z,68.80
2018-12-24T22:29:28.443Z,69.00
2018-12-24T22:31:56.917Z,69.10
2018-12-24T22:34:25.397Z,69.40
2018-12-24T22:36:53.813Z,69.70
2018-12-24T22:39:22.266Z,70.00
2018-12-24T22:41:50.709Z,69.90
2018-12-24T22:44:19.322Z,70.00
2018-12-24T22:46:47.769Z,70.00
2018-12-24T22:49:16.205Z,70.00
2018-12-24T22:51:44.666Z,70.30
2018-12-24T22:54:13.085Z,70.30
2018-12-24T22:56:42.350Z,70.10
2018-12-24T22:59:10.941Z,70.40
2018-12-24T23:01:39.408Z,70.40
2018-12-24T23:04:07.821Z,70.00
2018-12-24T23:06:36.269Z,70.20
2018-12-24T23:09:07.254Z,70.20
2018-12-24T23:11:35.688Z,70.10
2018-12-24T23:14:04.133Z,70.20
2018-12-24T23:16:32.593Z,70.00
2018-12-24T23:19:01.006Z,70.10
2018-12-24T23:21:29.453Z,70.20
2018-12-24T23:23:57.903Z,70.40
2018-12-24T23:26:26.308Z,70.30
2018-12-24T23:28:54.769Z,70.30
2018-12-24T23:31:23.246Z,70.10
2018-12-24T23:33:51.697Z,70.00
2018-12-24T23:36:20.110Z,69.90
2018-12-24T23:38:48.565Z,70.10
2018-12-24T23:41:16.996Z,70.30
2018-12-24T23:43:45.469Z,70.00
2018-12-24T23:46:13.949Z,70.90
2018-12-24T23:48:42.381Z,70.40
2018-12-24T23:51:10.814Z,70.40
2018-12-24T23:53:39.265Z,70.50
2018-12-24T23:56:07.683Z,70.60
2018-12-24T23:58:36.186Z,70.80
